createdAt,value
2023-02-03T00:09:55.017Z,79.57
2023-02-03T00:12:58.308Z,79.11
2023-02-03T00:16:02.152Z,79.22
2023-02-03T00:19:05.051Z,78.97
2023-02-03T00:22:07.802Z,79.01
2023-02-03T00:25:10.743Z,78.70
2023-02-03T00:28:13.538Z,78.41
2023-02-03T00:31:19.554Z,78.62
2023-02-03T00:34:22.574Z,78.49
2023-02-03T00:37:25.419Z,78.27
2023-02-03T00:40:29.954Z,78.15
2023-02-03T00:43:32.791Z,77.92
2023-02-03T00:46:38.577Z,77.95
2023-02-03T00:49:41.362Z,78.06
2023-02-03T00:52:44.281Z,78.33
2023-02-03T00:55:47.142Z,78.32
2023-02-03T00:58:50.172Z,78.38
2023-02-03T01:01:53.023Z,78.28
2023-02-03T01:04:55.828Z,78.05
2023-02-03T01:07:58.597Z,77.94
2023-02-03T01:11:10.658Z,78.28
2023-02-03T01:14:13.413Z,78.29
2023-02-03T01:17:16.175Z,78.36
2023-02-03T01:20:19.150Z,78.10
2023-02-03T01:23:24.170Z,77.81
2023-02-03T01:26:27.120Z,77.92
2023-02-03T01:29:29.948Z,78.15
2023-02-03T01:32:32.721Z,78.32
2023-02-03T01:35:37.972Z,77.94
2023-02-03T01:38:41.437Z,78.25
2023-02-03T01:41:44.624Z,78.25
2023-02-03T01:44:52.305Z,78.23
2023-02-03T01:47:59.196Z,77.87
2023-02-03T01:51:06.205Z,77.74
2023-02-03T01:54:12.387Z,77.60
2023-02-03T01:57:47.954Z,77.86
2023-02-03T02:00:52.333Z,77.82
2023-02-03T02:04:01.798Z,77.46
2023-02-03T02:07:06.447Z,77.30
2023-02-03T02:10:11.626Z,77.24
2023-02-03T02:13:15.686Z,76.68
2023-02-03T02:16:50.108Z,76.54
2023-02-03T02:20:35.721Z,76.49
2023-02-03T02:24:08.982Z,76.58
2023-02-03T02:27:20.698Z,76.07
2023-02-03T02:30:37.114Z,75.95
2023-02-03T02:33:53.523Z,75.84
2023-02-03T02:37:09.365Z,75.96
2023-02-03T02:40:38.671Z,75.94
2023-02-03T02:43:53.341Z,75.68
2023-02-03T02:47:06.504Z,75.62
2023-02-03T02:50:18.707Z,75.64
2023-02-03T02:53:25.459Z,75.50
2023-02-03T02:56:31.646Z,75.51
2023-02-03T02:59:34.499Z,75.71
2023-02-03T03:02:37.236Z,75.92
2023-02-03T03:05:43.616Z,75.90
2023-02-03T03:09:00.534Z,75.99
2023-02-03T03:12:07.490Z,75.89
2023-02-03T03:15:25.008Z,75.78
2023-02-03T03:18:43.564Z,75.59
2023-02-03T03:21:52.993Z,75.59
2023-02-03T03:25:03.528Z,75.64
2023-02-03T03:28:13.691Z,75.71
2023-02-03T03:31:19.340Z,75.57
2023-02-03T03:34:22.509Z,75.50
2023-02-03T03:37:33.810Z,75.57
2023-02-03T03:40:57.932Z,75.80
2023-02-03T03:44:04.960Z,75.73
2023-02-03T03:47:17.754Z,75.76
2023-02-03T03:50:30.632Z,76.05
2023-02-03T03:53:38.425Z,76.20
2023-02-03T03:57:15.683Z,76.17
2023-02-03T04:00:23.346Z,76.52
2023-02-03T04:03:33.347Z,76.55
2023-02-03T04:06:41.256Z,76.67
2023-02-03T04:09:44.190Z,76.86
2023-02-03T04:12:46.958Z,77.09
2023-02-03T04:15:49.748Z,77.20
2023-02-03T04:18:52.728Z,77.32
2023-02-03T04:21:55.795Z,77.28
2023-02-03T04:24:59.063Z,77.41
2023-02-03T04:28:04.480Z,77.54
2023-02-03T04:31:07.457Z,77.53
2023-02-03T04:34:10.498Z,77.62
2023-02-03T04:37:15.712Z,77.74
2023-02-03T04:40:18.540Z,77.90
2023-02-03T04:43:21.286Z,78.03
2023-02-03T04:46:24.149Z,78.02
2023-02-03T04:49:27.032Z,78.10
2023-02-03T04:52:29.815Z,78.17
2023-02-03T04:55:32.554Z,78.30
2023-02-03T04:58:37.004Z,78.33
2023-02-03T05:01:39.848Z,78.38
2023-02-03T05:04:42.748Z,78.31
2023-02-03T05:07:45.549Z,78.30
2023-02-03T05:10:49.955Z,78.43
2023-02-03T05:13:53.886Z,78.38
2023-02-03T05:16:56.741Z,78.44
2023-02-03T05:20:01.777Z,78.34
2023-02-03T05:23:04.835Z,78.35
2023-02-03T05:26:07.626Z,78.40
2023-02-03T05:29:14.331Z,78.56
2023-02-03T05:32:17.043Z,78.58
2023-02-03T05:35:19.832Z,78.47
2023-02-03T05:38:25.092Z,78.64
2023-02-03T05:41:48.685Z,78.61
2023-02-03T05:44:51.471Z,78.46
2023-02-03T05:47:54.241Z,78.56
2023-02-03T05:50:57.099Z,78.55
2023-02-03T05:53:59.949Z,78.36
2023-02-03T05:57:02.771Z,78.66
2023-02-03T06:00:07.511Z,78.62
2023-02-03T06:03:16.434Z,78.54
2023-02-03T06:06:19.591Z,78.48
2023-02-03T06:09:22.299Z,78.50
2023-02-03T06:12:26.984Z,78.23
2023-02-03T06:15:31.093Z,78.30
2023-02-03T06:18:33.810Z,78.24
2023-02-03T06:21:39.972Z,78.28
2023-02-03T06:24:44.814Z,78.38
2023-02-03T06:27:47.640Z,78.48
2023-02-03T06:30:52.214Z,78.55
2023-02-03T06:33:57.241Z,78.41
2023-02-03T06:37:00.053Z,78.34
2023-02-03T06:40:04.466Z,78.18
2023-02-03T06:43:09.364Z,78.07
2023-02-03T06:46:15.539Z,78.15
2023-02-03T06:49:19.409Z,78.35
2023-02-03T06:52:22.170Z,78.43
2023-02-03T06:55:25.095Z,78.55
2023-02-03T06:58:28.478Z,78.43
2023-02-03T07:01:32.837Z,78.39
2023-02-03T07:04:35.762Z,78.36
2023-02-03T07:07:39.523Z,78.64
2023-02-03T07:10:42.351Z,78.55
2023-02-03T07:13:45.235Z,78.47
2023-02-03T07:16:48.014Z,78.62
2023-02-03T07:19:53.081Z,78.54
2023-02-03T07:22:57.673Z,78.45
2023-02-03T07:26:01.603Z,78.47
2023-02-03T07:29:04.364Z,78.30
2023-02-03T07:32:12.983Z,78.36
2023-02-03T07:35:16.249Z,78.38
2023-02-03T07:38:19.293Z,78.41
2023-02-03T07:41:22.481Z,78.28
2023-02-03T07:44:25.299Z,78.48
2023-02-03T07:47:28.077Z,78.46
2023-02-03T07:50:31.277Z,78.50
2023-02-03T07:53:34.181Z,78.22
2023-02-03T07:56:37.060Z,78.33
2023-02-03T07:59:39.822Z,78.46
2023-02-03T08:02:43.789Z,78.17
2023-02-03T08:05:47.400Z,78.26
2023-02-03T08:08:50.165Z,78.20
2023-02-03T08:11:54.822Z,78.16
2023-02-03T08:14:57.726Z,78.32
2023-02-03T08:18:00.687Z,78.12
2023-02-03T08:21:06.963Z,78.14
2023-02-03T08:24:09.813Z,78.24
2023-02-03T08:27:14.608Z,78.03
2023-02-03T08:30:17.680Z,78.10
2023-02-03T08:33:20.393Z,78.28
2023-02-03T08:36:23.810Z,78.14
2023-02-03T08:39:26.931Z,78.06
2023-02-03T08:42:29.724Z,78.14
2023-02-03T08:45:32.624Z,78.06
2023-02-03T08:48:36.184Z,77.89
2023-02-03T08:51:39.125Z,77.95
2023-02-03T08:54:42.204Z,77.90
2023-02-03T08:57:45.142Z,77.86
2023-02-03T09:00:49.981Z,77.80
2023-02-03T09:03:52.929Z,77.30
2023-02-03T09:06:56.256Z,77.39
2023-02-03T09:10:01.385Z,77.36
2023-02-03T09:13:04.535Z,77.78
2023-02-03T09:16:08.393Z,77.23
2023-02-03T09:19:14.548Z,76.79
2023-02-03T09:22:22.920Z,76.81
2023-02-03T09:25:27.461Z,76.82
2023-02-03T09:28:30.601Z,76.51
2023-02-03T09:31:33.381Z,76.37
2023-02-03T09:34:36.851Z,76.49
2023-02-03T09:37:39.580Z,76.37
2023-02-03T09:40:42.442Z,76.27
2023-02-03T09:44:02.734Z,76.32
2023-02-03T09:47:20.851Z,76.21
2023-02-03T09:50:29.541Z,76.40
2023-02-03T09:53:45.548Z,76.04
2023-02-03T09:56:54.624Z,76.22
2023-02-03T09:59:59.810Z,76.06
2023-02-03T10:03:14.793Z,75.87
2023-02-03T10:06:38.615Z,76.06
2023-02-03T10:10:03.057Z,76.03
2023-02-03T10:13:21.003Z,76.01
2023-02-03T10:17:03.239Z,76.21
2023-02-03T10:20:17.607Z,75.85
2023-02-03T10:23:33.381Z,75.94
2023-02-03T10:26:38.871Z,75.88
2023-02-03T10:29:43.104Z,75.71
2023-02-03T10:32:46.224Z,75.81
2023-02-03T10:35:53.505Z,75.87
2023-02-03T10:39:15.095Z,75.64
2023-02-03T10:42:18.691Z,75.76
2023-02-03T10:45:21.435Z,75.90
2023-02-03T10:48:25.524Z,76.19
2023-02-03T10:51:35.212Z,76.22
2023-02-03T10:54:38.402Z,76.25
2023-02-03T10:57:41.650Z,76.53
2023-02-03T11:00:45.155Z,76.52
2023-02-03T11:04:31.039Z,76.67
2023-02-03T11:07:33.824Z,76.97
2023-02-03T11:10:40.912Z,77.24
2023-02-03T11:13:43.973Z,77.29
2023-02-03T11:16:47.408Z,77.39
2023-02-03T11:19:57.722Z,77.45
2023-02-03T11:23:03.567Z,77.68
2023-02-03T11:26:12.555Z,77.84
2023-02-03T11:29:23.442Z,77.79
2023-02-03T11:32:35.348Z,77.86
2023-02-03T11:35:38.613Z,78.16
2023-02-03T11:38:42.772Z,78.05
2023-02-03T11:41:47.277Z,78.10
2023-02-03T11:44:50.416Z,78.14
2023-02-03T11:48:02.708Z,78.44
2023-02-03T11:51:05.452Z,78.57
2023-02-03T11:54:41.368Z,78.67
2023-02-03T11:58:06.490Z,78.80
2023-02-03T12:01:17.522Z,79.08
2023-02-03T12:04:22.233Z,79.05
2023-02-03T12:07:47.891Z,79.01
2023-02-03T12:11:28.753Z,79.00
2023-02-03T12:14:48.480Z,78.99
2023-02-03T12:18:30.650Z,79.15
2023-02-03T12:21:54.846Z,79.09
2023-02-03T12:25:28.134Z,79.32
2023-02-03T12:28:56.507Z,79.30
2023-02-03T12:32:26.705Z,79.36
2023-02-03T12:35:56.632Z,79.37
2023-02-03T12:39:07.880Z,79.48
2023-02-03T12:42:27.080Z,79.47
2023-02-03T12:45:34.157Z,80.90
2023-02-03T12:49:02.848Z,80.15
2023-02-03T12:52:20.772Z,79.80
2023-02-03T12:55:38.121Z,79.62
2023-02-03T12:58:52.783Z,79.80
2023-02-03T13:02:04.582Z,80.10
2023-02-03T13:05:40.050Z,80.09
2023-02-03T13:09:15.972Z,80.05
2023-02-03T13:12:37.237Z,80.13
2023-02-03T13:15:49.108Z,80.27
2023-02-03T13:19:02.006Z,80.24
2023-02-03T13:22:13.347Z,80.37
2023-02-03T13:25:19.284Z,80.27
2023-02-03T13:28:47.075Z,80.59
2023-02-03T13:31:52.311Z,80.63
2023-02-03T13:35:12.909Z,80.68
2023-02-03T13:38:27.192Z,80.64
2023-02-03T13:41:39.002Z,80.69
2023-02-03T13:44:44.242Z,80.97
2023-02-03T13:47:57.987Z,81.11
2023-02-03T13:51:18.313Z,80.99
2023-02-03T13:54:43.569Z,80.96
2023-02-03T13:57:52.447Z,81.19
2023-02-03T14:00:59.048Z,81.33
2023-02-03T14:04:03.136Z,81.40
2023-02-03T14:07:30.716Z,81.37
2023-02-03T14:10:33.530Z,81.28
2023-02-03T14:13:38.740Z,80.81
2023-02-03T14:16:52.045Z,80.70
2023-02-03T14:19:57.095Z,80.75
2023-02-03T14:23:10.431Z,80.86
2023-02-03T14:26:34.797Z,80.61
2023-02-03T14:29:39.076Z,80.25
2023-02-03T14:32:52.775Z,80.05
2023-02-03T14:35:55.721Z,80.08
2023-02-03T14:39:01.638Z,79.80
2023-02-03T14:56:58.679Z,78.94
2023-02-03T15:00:05.891Z,78.59
2023-02-03T15:03:11.557Z,78.72
2023-02-03T15:06:44.866Z,79.00
2023-02-03T15:09:51.544Z,78.93
2023-02-03T15:12:58.169Z,78.72
2023-02-03T15:16:08.824Z,78.83
2023-02-03T15:19:21.159Z,79.11
2023-02-03T15:22:29.440Z,78.98
2023-02-03T15:25:33.136Z,79.15
2023-02-03T15:28:36.032Z,79.63
2023-02-03T15:31:45.677Z,79.87
2023-02-03T15:34:49.947Z,80.11
2023-02-03T15:38:04.619Z,80.30
2023-02-03T15:41:17.292Z,80.71
2023-02-03T15:44:33.165Z,80.70
2023-02-03T15:47:41.439Z,80.85
2023-02-03T15:50:54.637Z,80.99
2023-02-03T15:54:23.068Z,80.91
2023-02-03T15:57:29.237Z,80.90
2023-02-03T16:00:38.206Z,80.83
2023-02-03T16:03:45.162Z,81.14
2023-02-03T16:06:52.472Z,81.15
2023-02-03T16:09:57.221Z,81.56
2023-02-03T16:13:22.399Z,81.50
2023-02-03T16:16:32.996Z,81.53
2023-02-03T16:19:40.373Z,81.87
2023-02-03T16:23:01.587Z,82.35
2023-02-03T16:26:18.796Z,83.06
2023-02-03T16:29:40.132Z,82.99
2023-02-03T16:33:01.463Z,82.84
2023-02-03T16:36:33.364Z,83.05
2023-02-03T16:39:54.734Z,82.99
2023-02-03T16:43:16.811Z,83.18
2023-02-03T16:46:38.122Z,82.96
2023-02-03T16:49:59.514Z,82.77
2023-02-03T16:53:04.867Z,82.99
2023-02-03T16:56:07.868Z,83.20
2023-02-03T16:59:11.360Z,83.15
2023-02-03T17:02:14.212Z,83.11
2023-02-03T17:05:18.035Z,82.86
2023-02-03T17:08:23.131Z,83.06
2023-02-03T17:11:27.117Z,83.53
2023-02-03T17:14:31.085Z,83.80
2023-02-03T17:17:34.187Z,84.06
2023-02-03T17:20:39.555Z,84.00
2023-02-03T17:23:42.784Z,83.97
2023-02-03T17:26:45.532Z,83.68
2023-02-03T17:29:48.332Z,83.69
2023-02-03T17:32:51.369Z,83.75
2023-02-03T17:36:13.076Z,83.62
2023-02-03T17:56:07.288Z,83.56
2023-02-03T17:59:10.095Z,83.48
2023-02-03T18:02:12.886Z,83.52
2023-02-03T18:05:15.689Z,83.75
2023-02-03T18:08:20.557Z,83.78
2023-02-03T18:11:28.931Z,83.62
2023-02-03T18:14:31.820Z,83.51
2023-02-03T18:17:34.672Z,83.52
2023-02-03T18:20:37.441Z,83.67
2023-02-03T18:23:40.728Z,83.99
2023-02-03T18:26:52.026Z,84.44
2023-02-03T18:29:54.821Z,84.16
2023-02-03T18:33:00.114Z,84.13
2023-02-03T18:36:04.241Z,84.22
2023-02-03T18:39:10.253Z,84.10
2023-02-03T18:42:15.213Z,84.11
2023-02-03T18:45:18.080Z,83.95
2023-02-03T18:48:20.851Z,84.05
2023-02-03T18:51:25.238Z,84.02
2023-02-03T18:54:29.766Z,84.13
2023-02-03T18:57:32.707Z,84.18
2023-02-03T19:00:37.229Z,84.15
2023-02-03T19:03:39.951Z,84.81
2023-02-03T19:06:45.620Z,84.88
2023-02-03T19:09:48.423Z,84.80
2023-02-03T19:12:51.373Z,84.68
2023-02-03T19:15:54.208Z,84.73
2023-02-03T19:18:58.299Z,84.65
2023-02-03T19:22:01.057Z,84.82
2023-02-03T19:25:07.117Z,84.62
2023-02-03T19:28:17.492Z,84.45
2023-02-03T19:31:23.775Z,84.19
2023-02-03T19:34:28.424Z,84.26
2023-02-03T19:37:31.326Z,84.39
2023-02-03T19:40:34.959Z,84.56
2023-02-03T19:43:39.010Z,84.68
2023-02-03T19:46:42.442Z,84.75
2023-02-03T19:49:45.301Z,85.19
2023-02-03T19:52:51.595Z,85.25
2023-02-03T19:55:57.290Z,85.60
2023-02-03T19:59:00.291Z,85.58
2023-02-03T20:02:13.529Z,85.76
2023-02-03T20:05:20.736Z,85.86
2023-02-03T20:08:23.695Z,85.88
2023-02-03T20:11:27.648Z,86.01
2023-02-03T20:14:32.673Z,86.25
2023-02-03T20:17:36.721Z,86.27
2023-02-03T20:20:39.463Z,86.21
2023-02-03T20:23:42.318Z,86.39
2023-02-03T20:26:47.009Z,86.44
2023-02-03T20:29:50.634Z,86.47
2023-02-03T20:32:54.763Z,86.65
2023-02-03T20:35:58.315Z,86.72
2023-02-03T20:39:03.931Z,86.70
2023-02-03T20:42:16.736Z,86.85
2023-02-03T20:45:22.019Z,86.87
2023-02-03T20:48:26.055Z,86.83
2023-02-03T20:51:29.304Z,86.86
2023-02-03T20:54:32.121Z,86.91
2023-02-03T20:57:34.930Z,86.77
2023-02-03T21:00:37.771Z,86.86
2023-02-03T21:03:59.710Z,86.83
2023-02-03T21:07:18.056Z,86.86
2023-02-03T21:10:23.684Z,86.98
2023-02-03T21:13:29.879Z,86.94
2023-02-03T21:16:39.005Z,87.05
2023-02-03T21:19:42.457Z,86.90
2023-02-03T21:22:45.329Z,87.13
2023-02-03T21:25:48.076Z,87.24
2023-02-03T21:28:53.464Z,87.08
2023-02-03T21:31:56.409Z,87.07
2023-02-03T21:34:59.240Z,87.24
2023-02-03T21:38:22.528Z,87.17
2023-02-03T21:41:27.354Z,87.13
2023-02-03T21:44:35.508Z,87.33
2023-02-03T21:47:41.931Z,87.20
2023-02-03T21:50:44.800Z,87.43
2023-02-03T21:54:02.198Z,87.27
2023-02-03T21:57:05.276Z,87.11
2023-02-03T22:00:35.105Z,87.16
2023-02-03T22:03:44.872Z,87.08
2023-02-03T22:06:49.894Z,87.22
2023-02-03T22:09:52.679Z,87.17
2023-02-03T22:12:55.493Z,87.10
2023-02-03T22:15:58.914Z,87.03
2023-02-03T22:19:01.639Z,87.16
2023-02-03T22:22:04.407Z,87.21
2023-02-03T22:25:07.924Z,87.29
2023-02-03T22:28:12.809Z,87.00
2023-02-03T22:31:16.952Z,86.89
2023-02-03T22:34:21.223Z,86.59
2023-02-03T22:37:26.259Z,86.23
2023-02-03T22:40:31.463Z,85.81
2023-02-03T22:43:35.497Z,85.99
2023-02-03T22:46:40.129Z,86.14
2023-02-03T22:49:42.901Z,86.09
2023-02-03T22:52:45.687Z,85.81
2023-02-03T22:55:48.508Z,85.44
2023-02-03T22:58:51.288Z,85.23
2023-02-03T23:01:54.208Z,85.49
2023-02-03T23:04:56.990Z,85.12
2023-02-03T23:08:00.903Z,85.43
2023-02-03T23:11:03.651Z,85.66
2023-02-03T23:14:06.423Z,85.50
2023-02-03T23:17:09.136Z,85.47
2023-02-03T23:20:14.202Z,85.46
2023-02-03T23:23:16.944Z,85.36
2023-02-03T23:26:19.651Z,85.45
2023-02-03T23:29:22.447Z,85.41
2023-02-03T23:32:25.472Z,85.49
2023-02-03T23:35:46.727Z,85.51
2023-02-03T23:38:49.598Z,85.54
2023-02-03T23:41:52.327Z,85.65
2023-02-03T23:44:55.972Z,85.79
2023-02-03T23:47:58.717Z,85.87
2023-02-03T23:51:03.765Z,86.00
2023-02-03T23:54:06.533Z,85.73
2023-02-03T23:57:09.329Z,85.75
